TimeACDT,TemperatureF,Dew PointF,Humidity,Sea Level PressureIn,VisibilityMPH,Wind Direction,Wind SpeedMPH,Gust SpeedMPH,PrecipitationIn,Events,Conditions,WindDirDegrees,DateUTC
12:00 AM,57,46,56,,,East,13.8,,,,,100,2013-11-17 13:30:00
12:30 AM,58,44,50,,,East,10.4,,,,,90,2013-11-17 14:00:00
2:30 AM,59,45,49,,,East,11.5,,,,,80,2013-11-17 16:00:00
3:00 AM,59,45,48,,,East,11.5,,,,,80,2013-11-17 16:30:00
3:30 AM,59,44,46,,,NNE,3.5,,,,,30,2013-11-17 17:00:00
5:30 AM,55,40,47,,,NE,3.5,,,,,40,2013-11-17 19:00:00
6:00 AM,55,41,49,,,NE,3.5,,,,,50,2013-11-17 19:30:00
6:30 AM,56,43,50,,,ENE,2.3,,,,,60,2013-11-17 20:00:00
8:30 AM,66,47,38,,,ENE,1.2,,,,,70,2013-11-17 22:00:00
9:00 AM,69,45,31,,,North,3.5,,,,,0,2013-11-17 22:30:00
9:30 AM,70,52,43,,,West,3.5,,,,,270,2013-11-17 23:00:00
11:30 AM,71,53,42,,,West,5.8,,,,,280,2013-11-18 01:00:00
12:00 PM,74,51,34,,,WNW,5.8,,,,,290,2013-11-18 01:30:00
12:30 PM,74,51,34,,,West,5.8,,,,,280,2013-11-18 02:00:00
2:30 PM,85,38,10,,,NNW,10.4,,,,,330,2013-11-18 04:00:00
3:00 PM,85,31,7,,,NW,10.4,,,,,310,2013-11-18 04:30:00
3:30 PM,85,29,6,,,NW,9.2,,,,,310,2013-11-18 05:00:00
5:30 PM,84,30,7,,,NW,5.8,,,,,320,2013-11-18 07:00:00
6:00 PM,85,29,6,,,NW,3.5,,,,,310,2013-11-18 07:30:00
6:30 PM,85,27,6,,,NW,2.3,,,,,310,2013-11-18 08:00:00
8:30 PM,77,27,8,,,Calm,Calm,,,,,,2013-11-18 10:00:00
9:00 PM,75,32,12,,,WSW,3.5,,,,,240,2013-11-18 10:30:00
9:30 PM,72,34,15,,,SSW,2.3,,,,,210,2013-11-18 11:00:00
11:30 PM,68,37,21,,,SE,3.5,,,,,140,2013-11-18 13:00:00